sensor_id;sensor_type;location;lat;lon;timestamp;P1;durP1;ratioP1;P2;durP2;ratioP2
8946;SDS011;4508;48.790;9.028;2022-12-07T00:01:03;9.52;;;8.70;;
8946;SDS011;4508;48.790;9.028;2022-12-07T00:03:30;10.10;;;9.25;;
8946;SDS011;4508;48.790;9.028;2022-12-07T00:05:59;9.80;;;8.90;;
8946;SDS011;4508;48.790;9.028;2022-12-07T00:08:26;9.73;;;8.75;;
8946;SDS011;4508;48.790;9.028;2022-12-07T00:10:53;9.15;;;8.35;;
8946;SDS011;4508;48.790;9.028;2022-12-07T00:13:20;9.45;;;8.65;;
8946;SDS011;4508;48.790;9.028;2022-12-07T00:15:47;9.23;;;8.43;;
8946;SDS011;4508;48.790;9.028;2022-12-07T00:18:14;8.93;;;8.13;;
8946;SDS011;4508;48.790;9.028;2022-12-07T00:20:42;9.10;;;8.30;;
8946;SDS011;4508;48.790;9.028;2022-12-07T00:23:10;9.55;;;8.75;;
8946;SDS011;4508;48.790;9.028;2022-12-07T00:25:37;9.77;;;8.98;;
8946;SDS011;4508;48.790;9.028;2022-12-07T00:28:04;9.57;;;8.77;;
8946;SDS011;4508;48.790;9.028;2022-12-07T00:30:32;9.27;;;8.55;;
8946;SDS011;4508;48.790;9.028;2022-12-07T00:32:59;9.30;;;8.50;;
8946;SDS011;4508;48.790;9.028;2022-12-07T00:35:26;9.60;;;8.80;;
8946;SDS011;4508;48.790;9.028;2022-12-07T00:37:53;9.57;;;8.77;;
8946;SDS011;4508;48.790;9.028;2022-12-07T00:40:22;9.70;;;8.90;;
8946;SDS011;4508;48.790;9.028;2022-12-07T00:42:49;10.00;;;9.20;;
8946;SDS011;4508;48.790;9.028;2022-12-07T00:45:16;9.65;;;8.85;;
8946;SDS011;4508;48.790;9.028;2022-12-07T00:47:43;10.40;;;9.45;;
8946;SDS011;4508;48.790;9.028;2022-12-07T00:50:10;10.43;;;9.53;;
8946;SDS011;4508;48.790;9.028;2022-12-07T00:52:37;10.85;;;9.95;;
8946;SDS011;4508;48.790;9.028;2022-12-07T00:55:04;10.23;;;9.32;;
8946;SDS011;4508;48.790;9.028;2022-12-07T00:57:33;9.95;;;9.15;;
8946;SDS011;4508;48.790;9.028;2022-12-07T01:00:00;10.52;;;9.63;;
8946;SDS011;4508;48.790;9.028;2022-12-07T01:02:27;10.20;;;9.30;;
8946;SDS011;4508;48.790;9.028;2022-12-07T01:04:54;10.10;;;9.30;;
8946;SDS011;4508;48.790;9.028;2022-12-07T01:07:21;11.23;;;10.25;;
8946;SDS011;4508;48.790;9.028;2022-12-07T01:09:48;11.40;;;10.40;;
8946;SDS011;4508;48.790;9.028;2022-12-07T01:12:15;10.98;;;10.07;;
8946;SDS011;4508;48.790;9.028;2022-12-07T01:14:43;11.27;;;10.30;;
8946;SDS011;4508;48.790;9.028;2022-12-07T01:17:10;10.90;;;10.00;;
8946;SDS011;4508;48.790;9.028;2022-12-07T01:19:37;10.40;;;9.50;;
8946;SDS011;4508;48.790;9.028;2022-12-07T01:22:04;11.20;;;10.20;;
8946;SDS011;4508;48.790;9.028;2022-12-07T01:24:31;10.93;;;10.00;;
8946;SDS011;4508;48.790;9.028;2022-12-07T01:26:58;11.00;;;10.00;;
8946;SDS011;4508;48.790;9.028;2022-12-07T01:29:25;10.75;;;9.85;;
8946;SDS011;4508;48.790;9.028;2022-12-07T01:31:54;11.35;;;10.43;;
8946;SDS011;4508;48.790;9.028;2022-12-07T01:34:21;11.40;;;10.40;;
8946;SDS011;4508;48.790;9.028;2022-12-07T01:36:48;11.30;;;10.40;;
8946;SDS011;4508;48.790;9.028;2022-12-07T01:39:15;10.80;;;9.90;;
8946;SDS011;4508;48.790;9.028;2022-12-07T01:41:42;11.02;;;10.02;;
8946;SDS011;4508;48.790;9.028;2022-12-07T01:44:20;10.88;;;9.98;;
8946;SDS011;4508;48.790;9.028;2022-12-07T01:46:48;11.13;;;10.13;;
8946;SDS011;4508;48.790;9.028;2022-12-07T01:49:21;11.02;;;10.07;;
8946;SDS011;4508;48.790;9.028;2022-12-07T01:51:49;11.05;;;10.15;;
8946;SDS011;4508;48.790;9.028;2022-12-07T01:54:18;10.95;;;10.05;;
8946;SDS011;4508;48.790;9.028;2022-12-07T01:56:48;10.88;;;9.98;;
8946;SDS011;4508;48.790;9.028;2022-12-07T01:59:16;11.82;;;10.82;;
8946;SDS011;4508;48.790;9.028;2022-12-07T02:01:44;11.25;;;10.35;;
8946;SDS011;4508;48.790;9.028;2022-12-07T02:04:11;11.48;;;10.48;;
8946;SDS011;4508;48.790;9.028;2022-12-07T02:06:40;11.43;;;10.50;;
8946;SDS011;4508;48.790;9.028;2022-12-07T02:09:08;11.10;;;10.10;;
8946;SDS011;4508;48.790;9.028;2022-12-07T02:11:35;10.50;;;9.60;;
8946;SDS011;4508;48.790;9.028;2022-12-07T02:14:02;11.00;;;9.93;;
8946;SDS011;4508;48.790;9.028;2022-12-07T02:16:31;10.70;;;9.80;;
8946;SDS011;4508;48.790;9.028;2022-12-07T02:19:09;11.57;;;10.48;;
8946;SDS011;4508;48.790;9.028;2022-12-07T02:21:43;10.90;;;9.98;;
8946;SDS011;4508;48.790;9.028;2022-12-07T02:24:19;11.55;;;10.55;;
8946;SDS011;4508;48.790;9.028;2022-12-07T02:29:33;11.52;;;10.60;;
8946;SDS011;4508;48.790;9.028;2022-12-07T02:32:03;11.25;;;10.35;;
8946;SDS011;4508;48.790;9.028;2022-12-07T02:34:34;11.32;;;10.35;;
8946;SDS011;4508;48.790;9.028;2022-12-07T02:37:08;10.93;;;10.02;;
8946;SDS011;4508;48.790;9.028;2022-12-07T02:39:37;11.00;;;10.00;;
8946;SDS011;4508;48.790;9.028;2022-12-07T02:42:09;11.30;;;10.30;;
8946;SDS011;4508;48.790;9.028;2022-12-07T02:44:38;11.10;;;10.20;;
8946;SDS011;4508;48.790;9.028;2022-12-07T02:47:06;11.50;;;10.50;;
8946;SDS011;4508;48.790;9.028;2022-12-07T02:49:35;11.60;;;10.70;;
8946;SDS011;4508;48.790;9.028;2022-12-07T02:52:02;11.60;;;10.60;;
8946;SDS011;4508;48.790;9.028;2022-12-07T02:54:29;11.13;;;10.23;;
8946;SDS011;4508;48.790;9.028;2022-12-07T02:56:57;11.05;;;10.15;;
8946;SDS011;4508;48.790;9.028;2022-12-07T02:59:29;10.70;;;9.80;;
8946;SDS011;4508;48.790;9.028;2022-12-07T03:02:00;10.50;;;9.60;;
8946;SDS011;4508;48.790;9.028;2022-12-07T03:04:33;10.80;;;9.88;;
8946;SDS011;4508;48.790;9.028;2022-12-07T03:07:05;11.20;;;10.25;;
8946;SDS011;4508;48.790;9.028;2022-12-07T03:09:35;11.02;;;10.13;;
8946;SDS011;4508;48.790;9.028;2022-12-07T03:12:07;10.88;;;9.98;;
8946;SDS011;4508;48.790;9.028;2022-12-07T03:14:36;11.05;;;10.15;;
8946;SDS011;4508;48.790;9.028;2022-12-07T03:17:10;11.00;;;10.07;;
8946;SDS011;4508;48.790;9.028;2022-12-07T03:19:37;10.90;;;10.00;;
8946;SDS011;4508;48.790;9.028;2022-12-07T03:22:06;11.33;;;10.33;;
8946;SDS011;4508;48.790;9.028;2022-12-07T03:24:35;11.07;;;10.05;;
8946;SDS011;4508;48.790;9.028;2022-12-07T03:27:03;10.82;;;9.93;;
8946;SDS011;4508;48.790;9.028;2022-12-07T03:29:34;11.00;;;10.10;;
8946;SDS011;4508;48.790;9.028;2022-12-07T03:32:02;11.10;;;10.10;;
8946;SDS011;4508;48.790;9.028;2022-12-07T03:34:34;11.10;;;10.10;;
8946;SDS011;4508;48.790;9.028;2022-12-07T03:37:04;10.93;;;10.02;;
8946;SDS011;4508;48.790;9.028;2022-12-07T03:39:33;11.07;;;10.10;;
8946;SDS011;4508;48.790;9.028;2022-12-07T03:42:03;10.98;;;10.00;;
8946;SDS011;4508;48.790;9.028;2022-12-07T03:44:31;10.65;;;9.75;;
8946;SDS011;4508;48.790;9.028;2022-12-07T03:47:00;11.02;;;10.02;;
8946;SDS011;4508;48.790;9.028;2022-12-07T03:49:30;10.70;;;9.80;;
8946;SDS011;4508;48.790;9.028;2022-12-07T03:52:02;11.10;;;10.10;;
8946;SDS011;4508;48.790;9.028;2022-12-07T03:54:32;10.93;;;10.02;;
8946;SDS011;4508;48.790;9.028;2022-12-07T03:57:01;11.65;;;10.65;;
8946;SDS011;4508;48.790;9.028;2022-12-07T03:59:29;11.40;;;10.40;;
8946;SDS011;4508;48.790;9.028;2022-12-07T04:01:59;11.65;;;10.65;;
8946;SDS011;4508;48.790;9.028;2022-12-07T04:04:28;11.82;;;10.75;;
8946;SDS011;4508;48.790;9.028;2022-12-07T04:06:55;10.88;;;9.98;;
8946;SDS011;4508;48.790;9.028;2022-12-07T04:09:23;11.15;;;10.15;;
8946;SDS011;4508;48.790;9.028;2022-12-07T04:11:50;11.23;;;10.23;;
8946;SDS011;4508;48.790;9.028;2022-12-07T04:14:17;11.52;;;10.52;;
8946;SDS011;4508;48.790;9.028;2022-12-07T04:16:44;12.05;;;11.05;;
8946;SDS011;4508;48.790;9.028;2022-12-07T04:19:11;12.05;;;11.05;;
8946;SDS011;4508;48.790;9.028;2022-12-07T04:21:38;11.73;;;10.73;;
8946;SDS011;4508;48.790;9.028;2022-12-07T04:24:06;11.32;;;10.32;;
8946;SDS011;4508;48.790;9.028;2022-12-07T04:26:34;11.13;;;10.13;;
8946;SDS011;4508;48.790;9.028;2022-12-07T04:29:01;10.98;;;10.07;;
8946;SDS011;4508;48.790;9.028;2022-12-07T04:31:28;10.88;;;9.88;;
8946;SDS011;4508;48.790;9.028;2022-12-07T04:33:55;10.95;;;10.00;;
8946;SDS011;4508;48.790;9.028;2022-12-07T04:36:22;10.23;;;9.33;;
8946;SDS011;4508;48.790;9.028;2022-12-07T04:38:49;11.30;;;10.20;;
8946;SDS011;4508;48.790;9.028;2022-12-07T04:41:16;9.88;;;9.05;;
8946;SDS011;4508;48.790;9.028;2022-12-07T04:43:45;9.35;;;8.45;;
8946;SDS011;4508;48.790;9.028;2022-12-07T04:46:12;9.05;;;8.25;;
8946;SDS011;4508;48.790;9.028;2022-12-07T04:48:39;9.15;;;8.35;;
8946;SDS011;4508;48.790;9.028;2022-12-07T04:51:06;9.23;;;8.43;;
8946;SDS011;4508;48.790;9.028;2022-12-07T04:53:33;9.10;;;8.40;;
8946;SDS011;4508;48.790;9.028;2022-12-07T04:56:00;8.80;;;8.07;;
8946;SDS011;4508;48.790;9.028;2022-12-07T04:58:27;8.20;;;7.50;;
8946;SDS011;4508;48.790;9.028;2022-12-07T05:00:55;7.40;;;6.80;;
8946;SDS011;4508;48.790;9.028;2022-12-07T05:03:22;6.88;;;6.28;;
8946;SDS011;4508;48.790;9.028;2022-12-07T05:05:49;6.00;;;5.50;;
8946;SDS011;4508;48.790;9.028;2022-12-07T05:08:16;6.10;;;5.60;;
8946;SDS011;4508;48.790;9.028;2022-12-07T05:10:43;6.45;;;5.95;;
8946;SDS011;4508;48.790;9.028;2022-12-07T05:13:10;6.25;;;5.75;;
8946;SDS011;4508;48.790;9.028;2022-12-07T05:15:37;5.90;;;5.30;;
8946;SDS011;4508;48.790;9.028;2022-12-07T05:18:06;6.00;;;5.50;;
8946;SDS011;4508;48.790;9.028;2022-12-07T05:20:34;5.57;;;5.07;;
8946;SDS011;4508;48.790;9.028;2022-12-07T05:23:01;5.80;;;5.30;;
8946;SDS011;4508;48.790;9.028;2022-12-07T05:25:28;5.80;;;5.40;;
8946;SDS011;4508;48.790;9.028;2022-12-07T05:27:55;6.75;;;6.15;;
8946;SDS011;4508;48.790;9.028;2022-12-07T05:30:22;7.20;;;6.60;;
8946;SDS011;4508;48.790;9.028;2022-12-07T05:32:49;7.55;;;6.85;;
8946;SDS011;4508;48.790;9.028;2022-12-07T05:35:18;7.65;;;6.95;;
8946;SDS011;4508;48.790;9.028;2022-12-07T05:37:45;7.65;;;6.97;;
8946;SDS011;4508;48.790;9.028;2022-12-07T05:40:13;7.30;;;6.70;;
8946;SDS011;4508;48.790;9.028;2022-12-07T05:42:40;7.85;;;7.15;;
8946;SDS011;4508;48.790;9.028;2022-12-07T05:45:08;8.23;;;7.43;;
8946;SDS011;4508;48.790;9.028;2022-12-07T05:47:35;8.00;;;7.20;;
8946;SDS011;4508;48.790;9.028;2022-12-07T05:50:03;8.50;;;7.70;;
8946;SDS011;4508;48.790;9.028;2022-12-07T05:52:31;8.18;;;7.38;;
8946;SDS011;4508;48.790;9.028;2022-12-07T05:54:58;8.40;;;7.70;;
8946;SDS011;4508;48.790;9.028;2022-12-07T05:57:25;8.15;;;7.45;;
8946;SDS011;4508;48.790;9.028;2022-12-07T05:59:52;8.73;;;7.93;;
8946;SDS011;4508;48.790;9.028;2022-12-07T06:02:18;8.63;;;7.72;;
8946;SDS011;4508;48.790;9.028;2022-12-07T06:04:46;8.77;;;7.60;;
8946;SDS011;4508;48.790;9.028;2022-12-07T06:07:14;9.20;;;8.40;;
8946;SDS011;4508;48.790;9.028;2022-12-07T06:09:42;9.25;;;8.45;;
8946;SDS011;4508;48.790;9.028;2022-12-07T06:12:10;8.73;;;7.93;;
8946;SDS011;4508;48.790;9.028;2022-12-07T06:14:55;9.02;;;8.27;;
8946;SDS011;4508;48.790;9.028;2022-12-07T06:17:22;8.90;;;8.10;;
8946;SDS011;4508;48.790;9.028;2022-12-07T06:19:49;8.48;;;7.68;;
8946;SDS011;4508;48.790;9.028;2022-12-07T06:22:16;9.25;;;8.25;;
8946;SDS011;4508;48.790;9.028;2022-12-07T06:24:45;8.85;;;8.05;;
8946;SDS011;4508;48.790;9.028;2022-12-07T06:27:12;9.20;;;8.30;;
8946;SDS011;4508;48.790;9.028;2022-12-07T06:29:39;10.03;;;9.13;;
8946;SDS011;4508;48.790;9.028;2022-12-07T06:32:06;10.05;;;9.15;;
8946;SDS011;4508;48.790;9.028;2022-12-07T06:34:33;9.60;;;8.80;;
8946;SDS011;4508;48.790;9.028;2022-12-07T06:37:00;9.70;;;8.80;;
8946;SDS011;4508;48.790;9.028;2022-12-07T06:39:27;9.77;;;8.90;;
8946;SDS011;4508;48.790;9.028;2022-12-07T06:41:56;10.25;;;9.32;;
8946;SDS011;4508;48.790;9.028;2022-12-07T06:44:23;9.80;;;9.00;;
8946;SDS011;4508;48.790;9.028;2022-12-07T06:46:50;9.52;;;8.60;;
8946;SDS011;4508;48.790;9.028;2022-12-07T06:49:18;8.88;;;8.07;;
8946;SDS011;4508;48.790;9.028;2022-12-07T06:51:45;7.70;;;7.00;;
8946;SDS011;4508;48.790;9.028;2022-12-07T06:54:13;6.80;;;6.20;;
8946;SDS011;4508;48.790;9.028;2022-12-07T06:56:40;7.65;;;7.05;;
8946;SDS011;4508;48.790;9.028;2022-12-07T06:59:09;8.25;;;7.55;;
8946;SDS011;4508;48.790;9.028;2022-12-07T07:01:36;7.07;;;6.47;;
8946;SDS011;4508;48.790;9.028;2022-12-07T07:04:03;8.07;;;7.30;;
8946;SDS011;4508;48.790;9.028;2022-12-07T07:06:30;7.53;;;6.93;;
8946;SDS011;4508;48.790;9.028;2022-12-07T07:08:57;7.18;;;6.57;;
8946;SDS011;4508;48.790;9.028;2022-12-07T07:11:24;7.63;;;6.93;;
8946;SDS011;4508;48.790;9.028;2022-12-07T07:13:51;6.88;;;6.30;;
8946;SDS011;4508;48.790;9.028;2022-12-07T07:16:23;7.05;;;6.45;;
8946;SDS011;4508;48.790;9.028;2022-12-07T07:18:50;7.20;;;6.60;;
8946;SDS011;4508;48.790;9.028;2022-12-07T07:21:17;7.10;;;6.50;;
8946;SDS011;4508;48.790;9.028;2022-12-07T07:23:44;6.68;;;6.18;;
8946;SDS011;4508;48.790;9.028;2022-12-07T07:26:11;6.45;;;5.95;;
8946;SDS011;4508;48.790;9.028;2022-12-07T07:28:38;6.55;;;6.03;;
8946;SDS011;4508;48.790;9.028;2022-12-07T07:31:05;7.03;;;6.43;;
8946;SDS011;4508;48.790;9.028;2022-12-07T07:33:33;7.60;;;6.90;;
8946;SDS011;4508;48.790;9.028;2022-12-07T07:36:00;7.47;;;6.43;;
8946;SDS011;4508;48.790;9.028;2022-12-07T07:38:27;7.50;;;6.40;;
8946;SDS011;4508;48.790;9.028;2022-12-07T07:40:54;7.53;;;6.82;;
8946;SDS011;4508;48.790;9.028;2022-12-07T07:43:21;6.90;;;6.30;;
8946;SDS011;4508;48.790;9.028;2022-12-07T07:45:48;7.47;;;6.75;;
8946;SDS011;4508;48.790;9.028;2022-12-07T07:48:15;7.30;;;6.60;;
8946;SDS011;4508;48.790;9.028;2022-12-07T07:50:44;7.20;;;6.50;;
8946;SDS011;4508;48.790;9.028;2022-12-07T07:53:11;8.00;;;6.40;;
8946;SDS011;4508;48.790;9.028;2022-12-07T07:55:38;7.22;;;6.63;;
8946;SDS011;4508;48.790;9.028;2022-12-07T07:58:05;6.88;;;6.20;;
8946;SDS011;4508;48.790;9.028;2022-12-07T08:00:32;7.05;;;6.45;;
8946;SDS011;4508;48.790;9.028;2022-12-07T08:02:59;7.20;;;6.50;;
8946;SDS011;4508;48.790;9.028;2022-12-07T08:05:26;8.90;;;6.60;;
8946;SDS011;4508;48.790;9.028;2022-12-07T08:07:54;7.07;;;6.47;;
8946;SDS011;4508;48.790;9.028;2022-12-07T08:10:21;7.07;;;6.38;;
8946;SDS011;4508;48.790;9.028;2022-12-07T08:12:48;6.90;;;6.30;;
8946;SDS011;4508;48.790;9.028;2022-12-07T08:15:33;7.35;;;6.65;;
8946;SDS011;4508;48.790;9.028;2022-12-07T08:18:02;8.20;;;7.00;;
8946;SDS011;4508;48.790;9.028;2022-12-07T08:20:30;7.57;;;6.97;;
8946;SDS011;4508;48.790;9.028;2022-12-07T08:22:59;7.40;;;6.70;;
8946;SDS011;4508;48.790;9.028;2022-12-07T08:25:26;6.88;;;6.18;;
8946;SDS011;4508;48.790;9.028;2022-12-07T08:27:54;7.60;;;6.90;;
8946;SDS011;4508;48.790;9.028;2022-12-07T08:30:21;7.10;;;6.40;;
8946;SDS011;4508;48.790;9.028;2022-12-07T08:32:48;7.05;;;6.45;;
8946;SDS011;4508;48.790;9.028;2022-12-07T08:35:15;7.10;;;6.50;;
8946;SDS011;4508;48.790;9.028;2022-12-07T08:37:42;7.00;;;6.40;;
8946;SDS011;4508;48.790;9.028;2022-12-07T08:40:12;7.07;;;6.38;;
8946;SDS011;4508;48.790;9.028;2022-12-07T08:42:40;6.70;;;6.10;;
8946;SDS011;4508;48.790;9.028;2022-12-07T08:45:08;6.60;;;6.00;;
8946;SDS011;4508;48.790;9.028;2022-12-07T08:47:35;7.00;;;5.90;;
8946;SDS011;4508;48.790;9.028;2022-12-07T08:50:04;6.30;;;5.80;;
8946;SDS011;4508;48.790;9.028;2022-12-07T08:52:33;6.90;;;6.13;;
8946;SDS011;4508;48.790;9.028;2022-12-07T08:55:00;6.57;;;5.97;;
8946;SDS011;4508;48.790;9.028;2022-12-07T08:57:29;6.35;;;5.78;;
8946;SDS011;4508;48.790;9.028;2022-12-07T08:59:57;6.60;;;5.90;;
8946;SDS011;4508;48.790;9.028;2022-12-07T09:02:24;6.03;;;5.53;;
8946;SDS011;4508;48.790;9.028;2022-12-07T09:04:51;5.95;;;5.45;;
8946;SDS011;4508;48.790;9.028;2022-12-07T09:07:18;6.20;;;5.60;;
8946;SDS011;4508;48.790;9.028;2022-12-07T09:09:45;5.85;;;5.35;;
8946;SDS011;4508;48.790;9.028;2022-12-07T09:12:12;5.50;;;5.00;;
8946;SDS011;4508;48.790;9.028;2022-12-07T09:14:40;5.93;;;5.32;;
8946;SDS011;4508;48.790;9.028;2022-12-07T09:17:08;5.78;;;5.18;;
8946;SDS011;4508;48.790;9.028;2022-12-07T09:19:35;5.60;;;5.10;;
8946;SDS011;4508;48.790;9.028;2022-12-07T09:22:02;5.70;;;5.20;;
8946;SDS011;4508;48.790;9.028;2022-12-07T09:24:30;5.47;;;5.03;;
8946;SDS011;4508;48.790;9.028;2022-12-07T09:26:57;5.55;;;5.05;;
8946;SDS011;4508;48.790;9.028;2022-12-07T09:29:24;5.73;;;5.17;;
8946;SDS011;4508;48.790;9.028;2022-12-07T09:31:53;5.82;;;5.30;;
8946;SDS011;4508;48.790;9.028;2022-12-07T09:34:20;5.75;;;5.25;;
8946;SDS011;4508;48.790;9.028;2022-12-07T09:36:47;5.35;;;4.85;;
8946;SDS011;4508;48.790;9.028;2022-12-07T09:39:14;5.65;;;5.15;;
8946;SDS011;4508;48.790;9.028;2022-12-07T09:41:42;9.05;;;7.63;;
8946;SDS011;4508;48.790;9.028;2022-12-07T09:44:10;8.03;;;7.13;;
8946;SDS011;4508;48.790;9.028;2022-12-07T09:46:39;7.47;;;5.88;;
8946;SDS011;4508;48.790;9.028;2022-12-07T09:49:10;5.63;;;5.10;;
8946;SDS011;4508;48.790;9.028;2022-12-07T09:51:38;5.23;;;4.83;;
8946;SDS011;4508;48.790;9.028;2022-12-07T09:54:05;5.20;;;4.68;;
8946;SDS011;4508;48.790;9.028;2022-12-07T09:56:32;5.05;;;4.30;;
8946;SDS011;4508;48.790;9.028;2022-12-07T09:59:00;5.05;;;4.57;;
8946;SDS011;4508;48.790;9.028;2022-12-07T10:01:28;5.22;;;4.72;;
8946;SDS011;4508;48.790;9.028;2022-12-07T10:03:58;5.67;;;5.10;;
8946;SDS011;4508;48.790;9.028;2022-12-07T10:06:27;6.88;;;4.90;;
8946;SDS011;4508;48.790;9.028;2022-12-07T10:08:54;5.07;;;4.67;;
8946;SDS011;4508;48.790;9.028;2022-12-07T10:11:21;5.30;;;4.85;;
8946;SDS011;4508;48.790;9.028;2022-12-07T10:13:49;5.80;;;5.30;;
8946;SDS011;4508;48.790;9.028;2022-12-07T10:16:32;5.00;;;4.60;;
8946;SDS011;4508;48.790;9.028;2022-12-07T10:19:17;4.60;;;4.23;;
8946;SDS011;4508;48.790;9.028;2022-12-07T10:21:50;4.95;;;4.25;;
8946;SDS011;4508;48.790;9.028;2022-12-07T10:24:25;4.63;;;4.22;;
8946;SDS011;4508;48.790;9.028;2022-12-07T10:26:53;5.07;;;4.60;;
8946;SDS011;4508;48.790;9.028;2022-12-07T10:29:20;4.82;;;4.43;;
8946;SDS011;4508;48.790;9.028;2022-12-07T10:31:49;5.10;;;4.43;;
8946;SDS011;4508;48.790;9.028;2022-12-07T10:34:20;5.10;;;4.70;;
8946;SDS011;4508;48.790;9.028;2022-12-07T10:36:51;5.10;;;4.70;;
8946;SDS011;4508;48.790;9.028;2022-12-07T10:39:18;4.85;;;4.45;;
8946;SDS011;4508;48.790;9.028;2022-12-07T10:41:55;4.75;;;4.35;;
8946;SDS011;4508;48.790;9.028;2022-12-07T10:44:23;4.97;;;4.57;;
8946;SDS011;4508;48.790;9.028;2022-12-07T10:46:54;4.95;;;4.50;;
8946;SDS011;4508;48.790;9.028;2022-12-07T10:49:30;4.70;;;4.30;;
8946;SDS011;4508;48.790;9.028;2022-12-07T10:52:02;4.53;;;4.13;;
8946;SDS011;4508;48.790;9.028;2022-12-07T10:54:37;4.30;;;3.90;;
8946;SDS011;4508;48.790;9.028;2022-12-07T10:57:11;4.13;;;3.83;;
8946;SDS011;4508;48.790;9.028;2022-12-07T10:59:46;4.10;;;3.80;;
8946;SDS011;4508;48.790;9.028;2022-12-07T11:02:24;4.05;;;3.75;;
8946;SDS011;4508;48.790;9.028;2022-12-07T11:04:55;3.67;;;3.38;;
8946;SDS011;4508;48.790;9.028;2022-12-07T11:07:32;3.50;;;3.20;;
8946;SDS011;4508;48.790;9.028;2022-12-07T11:10:05;3.33;;;3.03;;
8946;SDS011;4508;48.790;9.028;2022-12-07T11:12:38;3.53;;;3.22;;
8946;SDS011;4508;48.790;9.028;2022-12-07T11:15:12;3.38;;;2.90;;
8946;SDS011;4508;48.790;9.028;2022-12-07T11:17:42;3.30;;;3.00;;
8946;SDS011;4508;48.790;9.028;2022-12-07T11:20:15;3.10;;;2.65;;
8946;SDS011;4508;48.790;9.028;2022-12-07T11:22:50;3.30;;;2.85;;
8946;SDS011;4508;48.790;9.028;2022-12-07T11:25:21;2.95;;;2.70;;
8946;SDS011;4508;48.790;9.028;2022-12-07T11:27:54;2.70;;;2.50;;
8946;SDS011;4508;48.790;9.028;2022-12-07T11:30:25;2.70;;;2.50;;
8946;SDS011;4508;48.790;9.028;2022-12-07T11:33:01;2.90;;;2.70;;
8946;SDS011;4508;48.790;9.028;2022-12-07T11:35:33;3.22;;;3.03;;
8946;SDS011;4508;48.790;9.028;2022-12-07T11:38:07;3.40;;;3.10;;
8946;SDS011;4508;48.790;9.028;2022-12-07T11:40:36;3.88;;;3.58;;
8946;SDS011;4508;48.790;9.028;2022-12-07T11:43:04;3.80;;;3.50;;
8946;SDS011;4508;48.790;9.028;2022-12-07T11:45:33;4.20;;;3.90;;
8946;SDS011;4508;48.790;9.028;2022-12-07T11:48:02;3.88;;;3.58;;
8946;SDS011;4508;48.790;9.028;2022-12-07T11:50:33;4.20;;;3.90;;
8946;SDS011;4508;48.790;9.028;2022-12-07T11:53:05;4.50;;;4.07;;
8946;SDS011;4508;48.790;9.028;2022-12-07T11:55:38;5.03;;;4.57;;
8946;SDS011;4508;48.790;9.028;2022-12-07T11:58:10;5.28;;;4.88;;
8946;SDS011;4508;48.790;9.028;2022-12-07T12:00:41;5.25;;;4.85;;
8946;SDS011;4508;48.790;9.028;2022-12-07T12:03:09;5.77;;;5.27;;
8946;SDS011;4508;48.790;9.028;2022-12-07T12:05:37;5.57;;;5.07;;
8946;SDS011;4508;48.790;9.028;2022-12-07T12:08:11;6.13;;;5.60;;
8946;SDS011;4508;48.790;9.028;2022-12-07T12:10:44;5.80;;;5.30;;
8946;SDS011;4508;48.790;9.028;2022-12-07T12:13:20;6.00;;;5.50;;
8946;SDS011;4508;48.790;9.028;2022-12-07T12:15:58;6.63;;;6.07;;
8946;SDS011;4508;48.790;9.028;2022-12-07T12:18:32;6.63;;;6.13;;
8946;SDS011;4508;48.790;9.028;2022-12-07T12:21:04;6.20;;;5.70;;
8946;SDS011;4508;48.790;9.028;2022-12-07T12:23:37;5.97;;;5.47;;
8946;SDS011;4508;48.790;9.028;2022-12-07T12:26:07;5.30;;;4.90;;
8946;SDS011;4508;48.790;9.028;2022-12-07T12:28:35;5.57;;;5.10;;
8946;SDS011;4508;48.790;9.028;2022-12-07T12:31:06;5.85;;;5.35;;
8946;SDS011;4508;48.790;9.028;2022-12-07T12:33:34;5.78;;;5.28;;
8946;SDS011;4508;48.790;9.028;2022-12-07T12:36:22;4.90;;;4.55;;
8946;SDS011;4508;48.790;9.028;2022-12-07T12:38:51;5.60;;;5.10;;
8946;SDS011;4508;48.790;9.028;2022-12-07T12:41:52;5.20;;;4.80;;
8946;SDS011;4508;48.790;9.028;2022-12-07T12:47:40;5.40;;;5.00;;
8946;SDS011;4508;48.790;9.028;2022-12-07T12:50:14;5.57;;;5.18;;
8946;SDS011;4508;48.790;9.028;2022-12-07T12:52:46;5.40;;;5.00;;
8946;SDS011;4508;48.790;9.028;2022-12-07T12:55:19;5.15;;;4.75;;
8946;SDS011;4508;48.790;9.028;2022-12-07T12:57:47;5.68;;;5.18;;
8946;SDS011;4508;48.790;9.028;2022-12-07T13:00:16;4.93;;;4.53;;
8946;SDS011;4508;48.790;9.028;2022-12-07T13:02:47;4.65;;;4.30;;
8946;SDS011;4508;48.790;9.028;2022-12-07T13:05:16;4.30;;;4.00;;
8946;SDS011;4508;48.790;9.028;2022-12-07T13:07:54;4.22;;;3.92;;
8946;SDS011;4508;48.790;9.028;2022-12-07T13:10:37;4.25;;;3.90;;
8946;SDS011;4508;48.790;9.028;2022-12-07T13:13:08;4.50;;;4.20;;
8946;SDS011;4508;48.790;9.028;2022-12-07T13:15:53;4.55;;;4.25;;
8946;SDS011;4508;48.790;9.028;2022-12-07T13:18:24;5.75;;;5.25;;
8946;SDS011;4508;48.790;9.028;2022-12-07T13:20:53;5.60;;;5.00;;
8946;SDS011;4508;48.790;9.028;2022-12-07T13:23:24;4.85;;;4.45;;
8946;SDS011;4508;48.790;9.028;2022-12-07T13:25:55;4.75;;;4.30;;
8946;SDS011;4508;48.790;9.028;2022-12-07T13:28:25;4.50;;;4.10;;
8946;SDS011;4508;48.790;9.028;2022-12-07T13:31:00;4.43;;;4.03;;
8946;SDS011;4508;48.790;9.028;2022-12-07T13:33:28;4.25;;;3.95;;
8946;SDS011;4508;48.790;9.028;2022-12-07T13:35:56;4.05;;;3.75;;
8946;SDS011;4508;48.790;9.028;2022-12-07T13:38:26;4.47;;;4.07;;
8946;SDS011;4508;48.790;9.028;2022-12-07T13:43:46;4.07;;;3.77;;
8946;SDS011;4508;48.790;9.028;2022-12-07T13:46:16;4.60;;;4.20;;
8946;SDS011;4508;48.790;9.028;2022-12-07T13:48:44;5.03;;;4.63;;
8946;SDS011;4508;48.790;9.028;2022-12-07T13:51:21;4.90;;;4.50;;
8946;SDS011;4508;48.790;9.028;2022-12-07T13:53:50;5.03;;;4.63;;
8946;SDS011;4508;48.790;9.028;2022-12-07T13:56:18;5.93;;;5.43;;
8946;SDS011;4508;48.790;9.028;2022-12-07T13:58:47;5.45;;;4.95;;
8946;SDS011;4508;48.790;9.028;2022-12-07T14:01:15;5.85;;;5.00;;
8946;SDS011;4508;48.790;9.028;2022-12-07T14:03:43;6.18;;;5.68;;
8946;SDS011;4508;48.790;9.028;2022-12-07T14:06:15;6.65;;;6.10;;
8946;SDS011;4508;48.790;9.028;2022-12-07T14:08:42;6.63;;;6.03;;
8946;SDS011;4508;48.790;9.028;2022-12-07T14:11:11;7.05;;;6.50;;
8946;SDS011;4508;48.790;9.028;2022-12-07T14:13:40;6.75;;;6.18;;
8946;SDS011;4508;48.790;9.028;2022-12-07T14:16:20;7.57;;;6.88;;
8946;SDS011;4508;48.790;9.028;2022-12-07T14:18:49;7.10;;;6.40;;
8946;SDS011;4508;48.790;9.028;2022-12-07T14:21:16;6.45;;;5.85;;
8946;SDS011;4508;48.790;9.028;2022-12-07T14:23:44;5.65;;;5.15;;
8946;SDS011;4508;48.790;9.028;2022-12-07T14:26:12;6.00;;;5.50;;
8946;SDS011;4508;48.790;9.028;2022-12-07T14:28:39;6.18;;;5.57;;
8946;SDS011;4508;48.790;9.028;2022-12-07T14:31:08;6.93;;;6.30;;
8946;SDS011;4508;48.790;9.028;2022-12-07T14:33:39;6.40;;;5.90;;
8946;SDS011;4508;48.790;9.028;2022-12-07T14:36:08;6.57;;;5.97;;
8946;SDS011;4508;48.790;9.028;2022-12-07T14:38:35;6.75;;;6.20;;
8946;SDS011;4508;48.790;9.028;2022-12-07T14:41:02;6.40;;;5.90;;
8946;SDS011;4508;48.790;9.028;2022-12-07T14:43:53;5.80;;;5.40;;
8946;SDS011;4508;48.790;9.028;2022-12-07T14:46:20;5.07;;;4.68;;
8946;SDS011;4508;48.790;9.028;2022-12-07T14:48:49;5.20;;;4.70;;
8946;SDS011;4508;48.790;9.028;2022-12-07T14:51:16;5.07;;;4.68;;
8946;SDS011;4508;48.790;9.028;2022-12-07T14:53:44;6.00;;;5.50;;
8946;SDS011;4508;48.790;9.028;2022-12-07T14:56:12;5.57;;;5.07;;
8946;SDS011;4508;48.790;9.028;2022-12-07T14:58:39;5.82;;;5.40;;
8946;SDS011;4508;48.790;9.028;2022-12-07T15:01:06;6.00;;;5.50;;
8946;SDS011;4508;48.790;9.028;2022-12-07T15:03:33;5.28;;;4.88;;
8946;SDS011;4508;48.790;9.028;2022-12-07T15:06:04;5.70;;;5.07;;
8946;SDS011;4508;48.790;9.028;2022-12-07T15:08:31;5.60;;;5.20;;
8946;SDS011;4508;48.790;9.028;2022-12-07T15:10:58;5.70;;;5.20;;
8946;SDS011;4508;48.790;9.028;2022-12-07T15:13:25;6.07;;;5.57;;
8946;SDS011;4508;48.790;9.028;2022-12-07T15:16:10;5.72;;;5.22;;
8946;SDS011;4508;48.790;9.028;2022-12-07T15:18:39;6.45;;;5.50;;
8946;SDS011;4508;48.790;9.028;2022-12-07T15:21:10;6.40;;;5.90;;
8946;SDS011;4508;48.790;9.028;2022-12-07T15:23:39;6.70;;;6.10;;
8946;SDS011;4508;48.790;9.028;2022-12-07T15:26:06;7.40;;;6.70;;
8946;SDS011;4508;48.790;9.028;2022-12-07T15:28:33;7.88;;;7.18;;
8946;SDS011;4508;48.790;9.028;2022-12-07T15:31:00;8.43;;;7.68;;